Seward, AK

3:38 AM AKST on November 28, 2014 (GMT -0900)
Seward | Change Station
CLOSE
Current Station
Airport
Location: Seward,
Elevation: 20 ft
Nearby Weather Stations

Elev 20 ft 60.13 °N, 149.42 °W | Updated 1 hour ago

Overcast
Overcast
25 °F
Feels Like 16 °F
N
9
Wind Variable Wind from NNW

Today
High -- | Low -- °F
--% Chance of Precip.
Yesterday
High -- | Low -- °F
Precip. -- in
9:27 AM 4:03 PM
Waxing Crescent, 40% visible
Pressure 30.18 in
Visibility 10.0 miles
Clouds Overcast 3900 ft
Windchill 16 °F
Dew Point 19 °F
Humidity 78%
Rainfall 0.00 in
Snow Depth Not available.
UV 0 out of 12
Pollen Not available.
Air Quality Not available.
Flu Activity Not available.
METAR PAWD 281053Z AUTO 34008KT 10SM OVC039 M04/M07 A3018 RMK AO2 SLP219 T10391072 TSNO

More Conditions Fewer Conditions

Pressure 30.18 in
Visibility 10.0 miles
Clouds Overcast 3900 ft
Windchill 16 °F
Dew Point 19 °F
Humidity 78%
Rainfall 0.00 in
Snow Depth Not available.
UV 0 out of 12
Pollen Not available.
Air Quality Not available.
Flu Activity Not available.
METAR PAWD 281053Z AUTO 34008KT 10SM OVC039 M04/M07 A3018 RMK AO2 SLP219 T10391072 TSNO

More Conditions Fewer Conditions

10-Day Weather Forecast

Almanac

Astronomy

Nov. 28, 2014 Rise Set
Actual Time
Civil Twilight
Nautical Twilight
Astronomical Twilight
Moon
Length of Visible Light
Length of Day
Tomorrow will be .
, % of the Moon is Illuminated

Today's Extremes

State Highs State Lows

Community

WunderPhotos

Upload Photos

1,774,199 photos uploaded!

WunderBlogs® & News

Nearby

Air Quality

  Air Quality AQ Index Pollutant
Not available.

Snow Depth

Station Depth Elevation

Earthquake Activity

City Distance Mag. Time & Date
Minimum magnitude displayed is 2.5.

Coastal Water Temperatures

Place Temperature

Nearby Weather Stations